Terminal Aerodrome Forecast
Issued by NWS Norman, OK

Home | Current Version | Previous Version | Text Only | Print | Product List | Glossary On
Versions: 1 2 3 4 5 6 7 8 9 10 11 12 13 14
000
FTUS44 KOUN 260520
TAFSPS
TAF
KSPS 260520Z 2606/2706 16014KT P6SM SKC
     FM260900 18011KT P6SM BKN015
     FM261500 17016G22KT P6SM SCT035
     FM270000 16018G26KT P6SM BKN035 PROB30 2700/2706 TS BKN025CB=

USA.gov is the U.S. government's official web portal to all federal, state and local government web resources and services.